Time;durP1;ratioP1;P1;durP2;ratioP2;P2;SDS_P1;SDS_P2;PMS_P1;PMS_P2;Temp;Humidity;BMP_temperature;BMP_pressure;BME280_temperature;BME280_humidity;BME280_pressure;Samples;Min_cycle;Max_cycle;Signal;HPM_P1;HPM_P2
2021/05/20 00:00:09;;;;;;;40.63;19.13;;;9.50;99.90;;;;;;5087772;28;20205;-79
2021/05/20 00:02:37;;;;;;;37.23;19.03;;;9.50;99.90;;;;;;5088651;28;20211;-80
2021/05/20 00:05:05;;;;;;;49.00;21.53;;;9.50;99.90;;;;;;5080335;28;20233;-79
2021/05/20 00:07:32;;;;;;;45.73;19.97;;;9.50;99.90;;;;;;5087164;28;20197;-79
2021/05/20 00:09:58;;;;;;;43.17;19.63;;;9.50;99.90;;;;;;5085786;28;20742;-80
2021/05/20 00:12:24;;;;;;;42.00;20.77;;;9.50;99.90;;;;;;5091267;28;20287;-79
2021/05/20 00:14:51;;;;;;;48.53;21.03;;;9.50;99.90;;;;;;5093672;28;20575;-80
2021/05/20 00:17:17;;;;;;;40.47;19.53;;;9.50;99.90;;;;;;5094661;28;20293;-80
2021/05/20 00:19:44;;;;;;;42.67;19.80;;;9.50;99.90;;;;;;5080036;28;20222;-80
2021/05/20 00:22:11;;;;;;;49.27;20.87;;;9.50;99.90;;;;;;5092066;28;20205;-80
2021/05/20 00:24:37;;;;;;;45.40;19.53;;;9.50;99.90;;;;;;5091899;28;20197;-80
2021/05/20 00:27:04;;;;;;;47.27;21.93;;;9.50;99.90;;;;;;5091578;28;20323;-80
2021/05/20 00:29:31;;;;;;;49.20;22.00;;;9.50;99.90;;;;;;5091857;28;20218;-80
2021/05/20 00:31:57;;;;;;;53.83;22.03;;;9.40;99.90;;;;;;5091529;28;20201;-80
2021/05/20 00:34:23;;;;;;;51.03;22.60;;;9.30;99.90;;;;;;5091539;28;20213;-79
2021/05/20 00:36:50;;;;;;;60.60;23.27;;;9.30;99.90;;;;;;5081327;28;20623;-80
2021/05/20 00:39:17;;;;;;;55.53;23.67;;;9.30;99.90;;;;;;5082640;28;20603;-80
2021/05/20 00:41:44;;;;;;;56.23;23.87;;;9.30;99.90;;;;;;5083671;28;20234;-79
2021/05/20 00:44:10;;;;;;;64.37;25.40;;;9.20;99.90;;;;;;5085782;28;20213;-79
2021/05/20 00:46:37;;;;;;;61.27;25.83;;;9.20;99.90;;;;;;5091307;28;20249;-79
2021/05/20 00:49:09;;;;;;;62.40;24.40;;;9.20;99.90;;;;;;5079659;28;20243;-79
2021/05/20 00:51:36;;;;;;;62.80;24.53;;;9.20;99.90;;;;;;5084354;28;20191;-80
2021/05/20 00:54:03;;;;;;;66.13;24.67;;;9.20;99.90;;;;;;5089871;28;20212;-80
2021/05/20 00:56:32;;;;;;;64.70;25.10;;;9.20;99.90;;;;;;5089505;28;20245;-79
2021/05/20 00:58:59;;;;;;;65.90;26.13;;;9.30;99.90;;;;;;5091370;28;20573;-80
2021/05/20 01:01:26;;;;;;;67.27;27.00;;;9.20;99.90;;;;;;5091991;28;20209;-79
2021/05/20 01:03:53;;;;;;;60.80;26.20;;;9.10;99.90;;;;;;5091732;28;20199;-80
2021/05/20 01:06:19;;;;;;;61.43;25.27;;;9.10;99.90;;;;;;5091504;28;20249;-79
2021/05/20 01:08:45;;;;;;;67.57;26.07;;;9.10;99.90;;;;;;5081692;28;20210;-80
2021/05/20 01:11:12;;;;;;;62.47;25.37;;;9.10;99.90;;;;;;5091120;28;20962;-79
2021/05/20 01:13:39;;;;;;;64.40;25.53;;;9.20;99.90;;;;;;5079431;28;20285;-79
2021/05/20 01:16:10;;;;;;;73.93;27.43;;;9.20;99.90;;;;;;5086237;28;20222;-80
2021/05/20 01:18:37;;;;;;;63.03;24.37;;;9.20;99.90;;;;;;5095417;28;20224;-79
2021/05/20 01:21:05;;;;;;;59.23;24.90;;;9.20;99.90;;;;;;5095857;28;20229;-79
2021/05/20 01:23:31;;;;;;;59.50;23.43;;;9.10;99.90;;;;;;5095591;28;20292;-80
2021/05/20 01:26:02;;;;;;;55.23;23.97;;;9.00;99.90;;;;;;5095334;28;20321;-80
2021/05/20 01:28:30;;;;;;;46.13;20.63;;;9.00;99.90;;;;;;5091374;28;20233;-79
2021/05/20 01:30:57;;;;;;;52.20;22.43;;;9.00;99.90;;;;;;5095306;28;20229;-79
2021/05/20 01:33:23;;;;;;;56.40;23.23;;;9.00;99.90;;;;;;5095237;28;20307;-79
2021/05/20 01:35:50;;;;;;;52.67;22.53;;;9.00;99.90;;;;;;5094766;28;20212;-79
2021/05/20 01:41:13;;;;;;;49.37;20.80;;;8.90;99.90;;;;;;5065212;28;20284;-80
2021/05/20 01:43:40;;;;;;;52.67;22.40;;;8.90;99.90;;;;;;5095119;28;20360;-80
2021/05/20 01:46:07;;;;;;;50.20;21.33;;;8.80;99.90;;;;;;5090899;28;20311;-80
2021/05/20 01:48:38;;;;;;;54.83;21.43;;;8.80;99.90;;;;;;5094734;28;20607;-79
2021/05/20 01:51:06;;;;;;;54.83;21.23;;;8.80;99.90;;;;;;5094605;28;20255;-80
2021/05/20 01:53:34;;;;;;;49.93;20.77;;;8.70;99.90;;;;;;5094838;28;20201;-79
2021/05/20 01:56:01;;;;;;;50.23;20.50;;;8.60;99.90;;;;;;5094328;28;20247;-80
2021/05/20 01:58:27;;;;;;;55.50;21.93;;;8.70;99.90;;;;;;5094272;28;20626;-80
2021/05/20 02:00:54;;;;;;;55.63;21.37;;;8.60;99.90;;;;;;5094988;28;20291;-79
2021/05/20 02:03:21;;;;;;;55.80;22.67;;;8.60;99.90;;;;;;5094435;28;20206;-80
2021/05/20 02:05:47;;;;;;;49.00;21.30;;;8.60;99.90;;;;;;5088495;28;20705;-79
2021/05/20 02:08:14;;;;;;;53.40;22.27;;;8.60;99.90;;;;;;5090025;28;20212;-79
2021/05/20 02:10:42;;;;;;;56.73;22.27;;;8.60;99.90;;;;;;5094537;28;20367;-79
2021/05/20 02:13:08;;;;;;;54.53;21.90;;;8.60;99.90;;;;;;5094234;28;20290;-79
2021/05/20 02:15:36;;;;;;;56.53;22.27;;;8.50;99.90;;;;;;5094956;28;20290;-80
2021/05/20 02:18:03;;;;;;;56.87;22.17;;;8.50;99.90;;;;;;5095332;28;20213;-79
2021/05/20 02:20:29;;;;;;;50.67;22.10;;;8.50;99.90;;;;;;5095981;28;20218;-79
2021/05/20 02:22:56;;;;;;;55.80;22.03;;;8.40;99.90;;;;;;5094361;28;20211;-79
2021/05/20 02:25:22;;;;;;;54.80;22.90;;;8.40;99.90;;;;;;5094956;28;20284;-79
2021/05/20 02:27:50;;;;;;;56.07;22.47;;;8.50;99.90;;;;;;5093259;28;20288;-79
2021/05/20 02:30:18;;;;;;;58.43;24.23;;;8.40;99.90;;;;;;5095465;28;20332;-79
2021/05/20 02:32:44;;;;;;;59.83;24.00;;;8.40;99.90;;;;;;5096684;28;20216;-80
2021/05/20 02:35:12;;;;;;;64.87;25.43;;;8.40;99.90;;;;;;5096468;28;20199;-80
2021/05/20 02:37:39;;;;;;;66.47;25.60;;;8.40;99.90;;;;;;5095504;28;20679;-80
2021/05/20 02:40:08;;;;;;;61.33;25.33;;;8.50;99.90;;;;;;5095846;28;20197;-80
2021/05/20 02:42:35;;;;;;;70.40;27.60;;;8.40;99.90;;;;;;5094780;28;20305;-80
2021/05/20 02:45:06;;;;;;;74.73;30.03;;;8.30;99.90;;;;;;5095883;28;20199;-79
2021/05/20 02:47:32;;;;;;;77.13;30.13;;;8.30;99.90;;;;;;5096063;28;20217;-80
2021/05/20 02:49:59;;;;;;;77.57;31.13;;;8.40;99.90;;;;;;5095653;28;20224;-80
2021/05/20 02:52:25;;;;;;;83.40;32.37;;;8.50;99.90;;;;;;5094303;28;20205;-80
2021/05/20 02:54:51;;;;;;;82.87;32.87;;;8.50;99.90;;;;;;5094023;28;20201;-80
2021/05/20 02:57:18;;;;;;;81.23;33.07;;;8.50;99.90;;;;;;5094534;28;20200;-80
2021/05/20 02:59:44;;;;;;;88.60;33.97;;;8.50;99.90;;;;;;5090457;28;20221;-80
2021/05/20 03:02:11;;;;;;;91.37;35.90;;;8.50;99.90;;;;;;5084420;28;20369;-80
2021/05/20 03:04:38;;;;;;;91.13;36.53;;;8.50;99.90;;;;;;5094037;28;20211;-80
2021/05/20 03:07:06;;;;;;;87.73;35.93;;;8.50;99.90;;;;;;5094408;28;20307;-79
2021/05/20 03:09:33;;;;;;;86.57;36.77;;;8.60;99.90;;;;;;5093701;28;20270;-80
2021/05/20 03:12:01;;;;;;;88.23;36.83;;;8.50;99.90;;;;;;5093509;28;20283;-79
2021/05/20 03:14:28;;;;;;;83.57;36.47;;;8.60;99.90;;;;;;5093457;28;20296;-79
2021/05/20 03:16:54;;;;;;;92.10;36.10;;;8.50;99.90;;;;;;5092981;28;20232;-79
2021/05/20 03:19:22;;;;;;;93.37;36.97;;;8.60;99.90;;;;;;5092691;28;20258;-80
2021/05/20 03:21:49;;;;;;;80.33;33.83;;;8.60;99.90;;;;;;5093042;28;20196;-80
2021/05/20 03:24:15;;;;;;;81.30;34.40;;;8.60;99.90;;;;;;5092071;28;20711;-80
2021/05/20 03:26:42;;;;;;;87.37;36.50;;;8.50;99.90;;;;;;5089404;28;20263;-80
2021/05/20 03:29:08;;;;;;;81.17;34.07;;;8.40;99.90;;;;;;5092729;28;20294;-80
2021/05/20 03:31:35;;;;;;;82.77;33.97;;;8.40;99.90;;;;;;5093054;28;20325;-79
2021/05/20 03:34:01;;;;;;;84.07;33.67;;;8.40;99.90;;;;;;5092648;28;20669;-79
2021/05/20 03:36:28;;;;;;;83.10;33.17;;;8.30;99.90;;;;;;5092584;28;20288;-80
2021/05/20 03:38:54;;;;;;;78.17;32.53;;;8.30;99.90;;;;;;5092166;28;20720;-80
2021/05/20 03:41:21;;;;;;;72.43;31.77;;;8.20;99.90;;;;;;5092696;28;20212;-79
2021/05/20 03:43:47;;;;;;;77.00;32.63;;;8.20;99.90;;;;;;5092428;28;20205;-79
2021/05/20 03:46:14;;;;;;;82.43;32.63;;;8.20;99.90;;;;;;5092283;28;20232;-79
2021/05/20 03:48:40;;;;;;;85.73;33.37;;;8.20;99.90;;;;;;5092283;28;20233;-80
2021/05/20 03:51:06;;;;;;;74.23;31.73;;;8.20;99.90;;;;;;5091985;28;20648;-80
2021/05/20 03:53:37;;;;;;;69.20;29.20;;;8.20;99.90;;;;;;5092720;28;20197;-80
2021/05/20 03:56:03;;;;;;;70.27;30.27;;;8.20;99.90;;;;;;5092000;28;20629;-80
2021/05/20 03:58:30;;;;;;;71.93;30.40;;;8.20;99.90;;;;;;5092868;28;20218;-79
2021/05/20 04:00:57;;;;;;;81.93;31.57;;;8.20;99.90;;;;;;5092697;28;20212;-80
2021/05/20 04:03:24;;;;;;;79.63;31.30;;;8.20;99.90;;;;;;5083917;28;20206;-79
2021/05/20 04:05:52;;;;;;;78.53;31.07;;;8.20;99.90;;;;;;5092294;28;20311;-80
2021/05/20 04:08:18;;;;;;;82.97;32.47;;;8.30;99.90;;;;;;5079424;28;20271;-80
2021/05/20 04:10:46;;;;;;;78.93;31.90;;;8.30;99.90;;;;;;5083155;28;20201;-79
2021/05/20 04:13:13;;;;;;;80.43;30.50;;;8.30;99.90;;;;;;5091603;28;20295;-80
2021/05/20 04:15:39;;;;;;;73.73;30.87;;;8.40;99.90;;;;;;5087463;28;20231;-79
2021/05/20 04:18:06;;;;;;;72.17;30.53;;;8.40;99.90;;;;;;5089903;28;20663;-80
2021/05/20 04:20:32;;;;;;;68.97;30.27;;;8.50;99.90;;;;;;5083652;28;20240;-79
2021/05/20 04:22:59;;;;;;;71.97;30.00;;;8.60;99.90;;;;;;5083829;28;20622;-79
2021/05/20 04:25:25;;;;;;;63.93;28.73;;;8.80;99.90;;;;;;5092252;28;20296;-79
2021/05/20 04:27:52;;;;;;;62.37;28.50;;;9.10;99.90;;;;;;5091702;28;20258;-79
2021/05/20 04:30:19;;;;;;;60.40;28.93;;;9.60;99.90;;;;;;5092278;28;20343;-79
2021/05/20 04:32:46;;;;;;;67.77;31.03;;;10.10;99.90;;;;;;5091800;28;20221;-79
2021/05/20 04:35:13;;;;;;;43.40;24.30;;;10.60;99.90;;;;;;5092243;28;20201;-79
2021/05/20 04:37:39;;;;;;;34.73;21.50;;;11.20;99.90;;;;;;5092087;28;20229;-79
2021/05/20 04:40:06;;;;;;;38.37;19.80;;;11.90;99.90;;;;;;5089400;28;20203;-80
2021/05/20 04:42:32;;;;;;;26.10;18.33;;;12.60;99.90;;;;;;5088751;28;20216;-80
2021/05/20 04:45:00;;;;;;;25.50;17.33;;;13.30;99.90;;;;;;5090800;28;20584;-80
2021/05/20 04:47:26;;;;;;;21.10;15.13;;;13.90;99.90;;;;;;5087152;28;20413;-79
2021/05/20 04:49:53;;;;;;;23.63;14.13;;;14.60;99.90;;;;;;5090249;28;20218;-80
2021/05/20 04:52:19;;;;;;;20.67;14.57;;;15.10;99.90;;;;;;5095612;28;20222;-81
2021/05/20 04:54:45;;;;;;;20.00;13.13;;;15.60;99.90;;;;;;5091494;28;20233;-79
2021/05/20 04:57:12;;;;;;;19.17;13.30;;;16.10;99.90;;;;;;5094061;28;20282;-80
2021/05/20 04:59:38;;;;;;;18.93;13.07;;;16.40;99.90;;;;;;5095791;28;20226;-80
2021/05/20 05:02:05;;;;;;;21.57;13.27;;;16.70;99.90;;;;;;5095257;28;20241;-80
2021/05/20 05:04:32;;;;;;;15.03;12.60;;;16.70;99.90;;;;;;5095866;28;20282;-79
2021/05/20 05:06:58;;;;;;;19.10;13.53;;;16.40;99.90;;;;;;5080354;28;20658;-79
2021/05/20 05:09:25;;;;;;;19.33;14.13;;;15.70;99.90;;;;;;5077937;28;20295;-79
2021/05/20 05:11:51;;;;;;;17.07;12.97;;;15.10;99.90;;;;;;5078820;28;20292;-80
2021/05/20 05:14:18;;;;;;;19.43;13.70;;;14.50;99.90;;;;;;5079193;28;20565;-80
2021/05/20 05:16:44;;;;;;;20.87;14.07;;;14.60;99.90;;;;;;5084884;28;20306;-79
2021/05/20 05:19:11;;;;;;;20.63;14.13;;;15.10;99.90;;;;;;5078567;28;20206;-79
2021/05/20 05:21:38;;;;;;;19.07;14.13;;;15.70;99.90;;;;;;5086293;28;20293;-79
2021/05/20 05:24:05;;;;;;;16.93;13.60;;;16.30;99.90;;;;;;5079004;28;20587;-81
2021/05/20 05:26:32;;;;;;;18.13;15.07;;;16.60;99.90;;;;;;5079752;28;20683;-80
2021/05/20 05:28:58;;;;;;;19.63;14.23;;;16.40;99.90;;;;;;5078421;28;20199;-78
2021/05/20 05:31:26;;;;;;;18.07;13.93;;;16.20;99.90;;;;;;5075734;28;20265;-79
2021/05/20 05:33:53;;;;;;;18.57;13.07;;;16.50;99.90;;;;;;5076996;28;20195;-80
2021/05/20 05:36:22;;;;;;;20.17;14.73;;;16.80;99.90;;;;;;5077699;28;20241;-81
2021/05/20 05:38:48;;;;;;;22.03;14.43;;;16.80;99.90;;;;;;5079873;28;20515;-81
2021/05/20 05:41:15;;;;;;;18.60;14.87;;;16.60;99.90;;;;;;5092097;28;20236;-80
2021/05/20 05:43:41;;;;;;;19.80;15.07;;;16.80;99.90;;;;;;5091883;28;20274;-77
2021/05/20 05:46:08;;;;;;;20.53;15.23;;;17.50;99.90;;;;;;5088667;28;20317;-80
2021/05/20 05:48:34;;;;;;;22.17;15.90;;;18.50;99.90;;;;;;5093725;28;20756;-79
2021/05/20 05:51:00;;;;;;;20.63;15.37;;;19.40;99.90;;;;;;5093108;28;20226;-80
2021/05/20 05:53:28;;;;;;;21.37;16.43;;;20.50;99.90;;;;;;5093870;28;20218;-80
2021/05/20 05:55:55;;;;;;;20.73;16.00;;;21.50;99.90;;;;;;5094706;28;20226;-81
2021/05/20 05:58:22;;;;;;;19.20;15.83;;;22.40;99.90;;;;;;5093595;28;20737;-79
2021/05/20 06:00:48;;;;;;;19.55;15.73;;;23.00;99.90;;;;;;5094443;28;20286;-79
2021/05/20 06:03:15;;;;;;;19.73;15.48;;;23.50;99.90;;;;;;5093738;28;20237;-79
2021/05/20 06:05:42;;;;;;;18.35;15.43;;;24.50;99.90;;;;;;5092086;28;20199;-80
2021/05/20 06:08:08;;;;;;;21.02;15.32;;;24.70;99.90;;;;;;5086071;28;20187;-80
2021/05/20 06:10:36;;;;;;;17.48;15.13;;;24.90;99.90;;;;;;5094514;28;20210;-80
2021/05/20 06:13:03;;;;;;;21.45;14.77;;;25.10;99.90;;;;;;5093938;28;20311;-80
2021/05/20 06:15:29;;;;;;;17.90;14.95;;;25.50;99.90;;;;;;5093437;28;20685;-80
2021/05/20 06:17:56;;;;;;;18.55;14.35;;;25.50;99.90;;;;;;5092876;28;20673;-79
2021/05/20 06:20:22;;;;;;;16.77;14.63;;;26.10;99.90;;;;;;5092346;28;20576;-79
2021/05/20 06:22:49;;;;;;;17.27;14.15;;;27.00;99.90;;;;;;5089502;28;20191;-78
2021/05/20 06:25:16;;;;;;;17.27;14.80;;;28.10;99.90;;;;;;5084624;28;20252;-78
2021/05/20 06:27:43;;;;;;;15.52;13.88;;;28.00;99.90;;;;;;5080375;28;20242;-78
2021/05/20 06:30:11;;;;;;;22.20;14.30;;;28.40;99.90;;;;;;5083450;28;20198;-78
2021/05/20 06:32:37;;;;;;;18.45;14.88;;;28.70;99.90;;;;;;5087374;28;20281;-78
2021/05/20 06:35:04;;;;;;;18.90;15.60;;;29.00;99.90;;;;;;5092648;28;20704;-79
2021/05/20 06:37:31;;;;;;;19.20;15.48;;;28.90;99.90;;;;;;5093025;28;20226;-78
2021/05/20 06:39:58;;;;;;;16.63;14.88;;;28.50;99.90;;;;;;5086937;28;20252;-79
2021/05/20 06:42:24;;;;;;;18.65;15.13;;;28.90;99.90;;;;;;5088403;28;20226;-79
2021/05/20 06:44:51;;;;;;;18.38;16.45;;;29.00;99.90;;;;;;5080354;28;20282;-78
2021/05/20 06:47:18;;;;;;;17.42;15.60;;;29.00;99.90;;;;;;5090433;28;20352;-79
2021/05/20 06:49:44;;;;;;;19.20;15.70;;;29.20;99.90;;;;;;5093490;28;20598;-79
2021/05/20 06:52:10;;;;;;;18.45;16.15;;;28.80;99.90;;;;;;5076041;28;20282;-79
2021/05/20 06:54:37;;;;;;;21.13;16.90;;;29.00;99.90;;;;;;5079213;28;20255;-79
2021/05/20 06:57:06;;;;;;;18.17;16.38;;;29.60;99.90;;;;;;5093078;28;20281;-79
2021/05/20 07:02:18;;;;;;;20.30;16.13;;;30.20;99.90;;;;;;5081868;28;20189;-79
2021/05/20 07:04:44;;;;;;;18.58;15.70;;;29.90;99.90;;;;;;5093783;28;20203;-79
2021/05/20 07:07:12;;;;;;;17.55;15.15;;;29.70;99.90;;;;;;5082411;28;20294;-79
2021/05/20 07:09:40;;;;;;;20.63;15.35;;;29.60;99.90;;;;;;5080663;28;20195;-78
2021/05/20 07:12:07;;;;;;;16.15;14.55;;;29.90;99.90;;;;;;5089583;28;20195;-79
2021/05/20 07:14:34;;;;;;;18.70;15.38;;;29.90;99.90;;;;;;5087251;28;20284;-79
2021/05/20 07:17:00;;;;;;;14.93;13.32;;;30.30;99.90;;;;;;5090193;28;20195;-79
2021/05/20 07:19:28;;;;;;;15.98;13.23;;;30.30;99.90;;;;;;5085198;28;20672;-80
2021/05/20 07:21:54;;;;;;;14.57;12.40;;;30.30;99.90;;;;;;5080030;28;20405;-79
2021/05/20 07:24:21;;;;;;;15.07;12.30;;;30.30;99.90;;;;;;5090751;28;20246;-79
2021/05/20 07:26:47;;;;;;;12.45;10.93;;;30.20;99.90;;;;;;5087957;28;20229;-79
2021/05/20 07:29:14;;;;;;;13.88;11.10;;;29.20;99.90;;;;;;5081784;28;20222;-79
2021/05/20 07:31:40;;;;;;;14.63;11.80;;;29.00;99.90;;;;;;5081391;28;20205;-79
2021/05/20 07:34:08;;;;;;;12.50;11.27;;;29.60;99.90;;;;;;5086208;28;20199;-79
2021/05/20 07:36:35;;;;;;;13.82;11.25;;;29.90;99.90;;;;;;5090059;28;20719;-79
2021/05/20 07:39:05;;;;;;;14.43;10.90;;;30.70;99.90;;;;;;5090505;28;20744;-78
2021/05/20 07:41:33;;;;;;;12.02;9.88;;;31.30;99.90;;;;;;5091719;28;20195;-79
2021/05/20 07:44:00;;;;;;;12.77;9.35;;;31.50;99.90;;;;;;5078497;28;20210;-79
2021/05/20 07:46:26;;;;;;;12.13;9.07;;;31.10;99.90;;;;;;5084200;28;20218;-79
2021/05/20 07:48:53;;;;;;;14.98;9.52;;;30.60;99.90;;;;;;5085166;28;20286;-79
2021/05/20 07:51:19;;;;;;;9.35;8.32;;;31.20;99.90;;;;;;5090068;28;20295;-79
2021/05/20 07:53:46;;;;;;;10.38;7.43;;;31.20;99.90;;;;;;5077132;28;20209;-79
2021/05/20 07:56:13;;;;;;;10.18;7.90;;;31.50;99.90;;;;;;5085157;28;20290;-79
2021/05/20 07:58:39;;;;;;;10.32;7.93;;;31.30;99.90;;;;;;5092119;28;20214;-79
2021/05/20 08:01:06;;;;;;;9.48;7.95;;;30.80;99.90;;;;;;5091729;28;20217;-78
2021/05/20 08:03:37;;;;;;;10.00;8.82;;;31.20;99.90;;;;;;5092235;28;20608;-79
2021/05/20 08:06:10;;;;;;;12.35;9.10;;;31.50;99.90;;;;;;5092498;28;20225;-79
2021/05/20 08:08:47;;;;;;;9.27;7.97;;;30.60;99.90;;;;;;5091994;28;20199;-79
2021/05/20 08:11:15;;;;;;;10.98;8.93;;;30.60;99.90;;;;;;5090906;28;20191;-79
2021/05/20 08:13:41;;;;;;;13.35;8.50;;;30.40;99.90;;;;;;5089554;28;20198;-79
2021/05/20 08:16:08;;;;;;;11.80;8.60;;;30.00;99.90;;;;;;5083491;28;20206;-79
2021/05/20 08:18:34;;;;;;;11.85;9.23;;;29.00;99.90;;;;;;5090545;28;20240;-79
2021/05/20 08:21:02;;;;;;;13.35;10.93;;;28.40;99.90;;;;;;5091529;28;20241;-79
2021/05/20 08:23:31;;;;;;;12.70;11.25;;;27.90;99.90;;;;;;5089856;28;20226;-79
2021/05/20 08:25:58;;;;;;;14.38;10.57;;;27.50;99.90;;;;;;5088174;28;20671;-79
2021/05/20 08:28:25;;;;;;;12.85;10.43;;;27.90;99.90;;;;;;5076077;28;20217;-79
2021/05/20 08:30:51;;;;;;;11.68;10.48;;;28.30;99.90;;;;;;5077835;28;20561;-79
2021/05/20 08:33:18;;;;;;;14.73;11.10;;;28.70;99.90;;;;;;5096433;28;20285;-79
2021/05/20 08:35:45;;;;;;;15.13;11.23;;;28.30;99.90;;;;;;5096553;28;20237;-79
2021/05/20 08:38:12;;;;;;;15.32;11.27;;;28.20;99.90;;;;;;5096278;28;20695;-79
2021/05/20 08:40:39;;;;;;;15.32;11.80;;;27.90;99.90;;;;;;5096305;28;20209;-79
2021/05/20 08:43:05;;;;;;;16.85;12.52;;;27.90;99.90;;;;;;5075493;28;20730;-79
2021/05/20 08:45:33;;;;;;;16.40;12.65;;;27.60;99.90;;;;;;5076508;28;20295;-79
2021/05/20 08:48:01;;;;;;;15.77;12.80;;;27.30;99.90;;;;;;5075948;28;20223;-80
2021/05/20 08:50:29;;;;;;;15.88;11.48;;;27.90;99.90;;;;;;5075697;28;20291;-79
2021/05/20 08:52:56;;;;;;;15.20;11.85;;;27.70;99.90;;;;;;5076484;28;20300;-79
2021/05/20 08:55:24;;;;;;;17.20;12.75;;;27.90;99.90;;;;;;5075677;28;20212;-80
2021/05/20 08:57:51;;;;;;;19.27;13.75;;;28.40;99.90;;;;;;5075845;28;20286;-79
2021/05/20 09:00:20;;;;;;;20.20;14.45;;;28.50;99.90;;;;;;5092429;28;20284;-79
2021/05/20 09:02:47;;;;;;;22.35;13.23;;;28.30;99.90;;;;;;5096156;28;20294;-79
2021/05/20 09:05:17;;;;;;;20.58;13.93;;;29.40;99.90;;;;;;5096011;28;20244;-79
2021/05/20 09:07:48;;;;;;;19.35;13.10;;;29.10;99.90;;;;;;5090684;28;20284;-79
2021/05/20 09:10:19;;;;;;;15.60;12.45;;;28.70;99.90;;;;;;5075542;28;20250;-79
2021/05/20 09:12:46;;;;;;;17.17;12.55;;;29.20;99.90;;;;;;5075250;28;20817;-79
2021/05/20 09:15:16;;;;;;;17.38;13.95;;;29.20;99.90;;;;;;5075755;28;20211;-79
2021/05/20 09:17:42;;;;;;;13.95;11.95;;;29.50;99.90;;;;;;5075570;28;20221;-79
2021/05/20 09:20:11;;;;;;;13.40;11.35;;;29.10;99.90;;;;;;5075618;28;20291;-79
2021/05/20 09:22:38;;;;;;;14.25;11.40;;;29.50;99.90;;;;;;5075247;28;20312;-79
2021/05/20 09:25:06;;;;;;;13.88;10.80;;;29.10;99.90;;;;;;5078330;28;20661;-79
2021/05/20 09:27:35;;;;;;;9.65;8.57;;;29.50;99.90;;;;;;5094653;28;20696;-79
2021/05/20 09:30:13;;;;;;;9.68;7.30;;;29.90;99.90;;;;;;5095505;28;20245;-79
2021/05/20 09:32:41;;;;;;;8.73;7.60;;;29.90;99.90;;;;;;5095747;28;20199;-79
2021/05/20 09:35:08;;;;;;;8.30;6.63;;;29.40;99.90;;;;;;5095135;28;20195;-80
2021/05/20 09:37:46;;;;;;;7.53;6.53;;;28.60;99.90;;;;;;5094793;28;20202;-79
2021/05/20 09:40:13;;;;;;;10.30;6.65;;;27.30;99.90;;;;;;5095623;28;20230;-79
2021/05/20 09:42:39;;;;;;;7.13;5.55;;;27.00;99.90;;;;;;5095275;28;20191;-79
2021/05/20 09:45:07;;;;;;;9.75;6.32;;;26.70;99.90;;;;;;5094958;28;20253;-79
2021/05/20 09:47:33;;;;;;;7.90;6.00;;;26.20;99.90;;;;;;5074799;28;20306;-79
2021/05/20 09:50:02;;;;;;;7.80;5.38;;;26.00;99.90;;;;;;5084193;28;20198;-78
2021/05/20 09:52:29;;;;;;;9.27;6.75;;;25.90;99.90;;;;;;5094951;28;20528;-79
2021/05/20 09:54:56;;;;;;;10.98;7.30;;;24.90;99.90;;;;;;5095329;28;20227;-79
2021/05/20 09:57:31;;;;;;;16.95;9.10;;;24.30;99.90;;;;;;5094258;28;20210;-79
2021/05/20 10:00:09;;;;;;;20.70;10.85;;;23.70;99.90;;;;;;5094613;28;20205;-79
2021/05/20 10:02:36;;;;;;;17.85;11.57;;;23.40;99.90;;;;;;5090446;28;20235;-79
2021/05/20 10:05:24;;;;;;;26.98;15.10;;;23.30;99.90;;;;;;5077180;28;20200;-80
2021/05/20 10:07:50;;;;;;;28.85;15.98;;;23.10;99.90;;;;;;5093923;28;20719;-79
2021/05/20 10:10:18;;;;;;;24.23;15.55;;;22.50;99.90;;;;;;5094219;28;20202;-79
2021/05/20 10:12:46;;;;;;;23.55;15.40;;;22.30;99.90;;;;;;5099112;28;20639;-79
2021/05/20 10:15:14;;;;;;;26.77;15.70;;;22.40;99.90;;;;;;5100496;28;20249;-79
2021/05/20 10:17:41;;;;;;;19.20;11.90;;;22.20;99.90;;;;;;5097177;28;20202;-78
2021/05/20 10:20:10;;;;;;;14.88;9.40;;;22.60;99.90;;;;;;5096274;28;20198;-79
2021/05/20 10:22:37;;;;;;;15.63;10.10;;;22.80;99.90;;;;;;5095888;28;20230;-79
2021/05/20 10:25:05;;;;;;;15.35;10.25;;;23.10;99.90;;;;;;5094946;28;20286;-79
2021/05/20 10:27:33;;;;;;;12.68;9.80;;;23.10;99.90;;;;;;5087244;28;20226;-79
2021/05/20 10:30:00;;;;;;;13.82;9.93;;;22.90;99.90;;;;;;5092977;28;20286;-79
2021/05/20 10:32:28;;;;;;;11.45;8.30;;;23.30;99.90;;;;;;5096835;28;20221;-79
2021/05/20 10:35:01;;;;;;;15.20;9.73;;;23.00;99.90;;;;;;5095001;28;20689;-79
2021/05/20 10:37:37;;;;;;;10.65;8.95;;;23.10;99.90;;;;;;5094678;28;20641;-79
2021/05/20 10:40:06;;;;;;;10.93;8.20;;;22.90;99.90;;;;;;5095387;28;20194;-80
2021/05/20 10:42:35;;;;;;;9.23;7.07;;;22.60;99.90;;;;;;5095030;28;20223;-78
2021/05/20 10:45:21;;;;;;;9.10;6.47;;;22.40;99.90;;;;;;5094382;28;20557;-79
2021/05/20 10:48:19;;;;;;;7.38;5.90;;;22.20;99.90;;;;;;5091718;28;20293;-78
2021/05/20 10:51:17;;;;;;;8.20;6.45;;;22.10;99.90;;;;;;5093973;28;20195;-79
2021/05/20 10:54:09;;;;;;;10.38;6.05;;;22.20;99.90;;;;;;5091109;28;20667;-79
2021/05/20 10:56:48;;;;;;;7.07;6.40;;;22.30;99.90;;;;;;5085487;28;20213;-79
2021/05/20 10:59:44;;;;;;;8.57;6.40;;;22.30;99.90;;;;;;5090596;28;20191;-79
2021/05/20 11:02:15;;;;;;;7.95;6.47;;;22.70;99.90;;;;;;5093939;28;20199;-79
2021/05/20 11:04:42;;;;;;;9.55;6.38;;;23.00;99.90;;;;;;5088549;28;20369;-79
2021/05/20 11:07:09;;;;;;;7.57;5.38;;;23.10;99.90;;;;;;5093622;28;20223;-80
2021/05/20 11:09:43;;;;;;;5.70;5.10;;;23.10;99.90;;;;;;5093677;28;20774;-78
2021/05/20 11:12:09;;;;;;;6.45;5.07;;;22.60;99.90;;;;;;5073391;28;20207;-79
2021/05/20 11:14:47;;;;;;;7.18;4.63;;;22.90;99.90;;;;;;5085325;28;20302;-79
2021/05/20 11:17:37;;;;;;;8.18;5.22;;;22.70;99.90;;;;;;5084573;28;20315;-78
2021/05/20 11:20:40;;;;;;;6.75;4.43;;;23.10;99.90;;;;;;5091658;28;20194;-79
2021/05/20 11:23:30;;;;;;;5.70;4.03;;;23.20;99.90;;;;;;5093097;28;20199;-80
2021/05/20 11:26:14;;;;;;;5.80;3.80;;;23.20;99.90;;;;;;5090321;28;20191;-80
2021/05/20 11:29:01;;;;;;;4.57;3.88;;;23.30;99.90;;;;;;5092598;28;20183;-79
2021/05/20 11:31:30;;;;;;;4.63;3.47;;;23.50;99.90;;;;;;5075493;28;20244;-79
2021/05/20 11:34:11;;;;;;;4.53;4.13;;;23.30;99.90;;;;;;5091563;28;20230;-79
2021/05/20 11:36:40;;;;;;;6.28;4.30;;;23.30;99.90;;;;;;5083531;28;20222;-79
2021/05/20 11:39:10;;;;;;;7.88;4.55;;;23.30;99.90;;;;;;5081336;28;20259;-81
2021/05/20 11:41:39;;;;;;;6.18;4.00;;;23.10;99.90;;;;;;5091348;28;20293;-79
2021/05/20 11:44:12;;;;;;;5.50;4.50;;;23.20;99.90;;;;;;5091862;28;20294;-79
2021/05/20 11:46:40;;;;;;;4.43;4.03;;;23.00;99.90;;;;;;5091307;28;20289;-79
2021/05/20 11:49:18;;;;;;;5.70;4.20;;;23.20;99.90;;;;;;5092529;28;20301;-79
2021/05/20 11:51:54;;;;;;;5.85;4.10;;;23.20;99.90;;;;;;5087729;28;20668;-79
2021/05/20 11:54:22;;;;;;;4.80;4.30;;;22.80;99.90;;;;;;5084194;28;20652;-79
2021/05/20 11:56:52;;;;;;;5.88;3.72;;;22.30;99.90;;;;;;5089971;28;20199;-79
2021/05/20 11:59:23;;;;;;;5.68;4.20;;;22.10;99.90;;;;;;5092267;28;20194;-80
2021/05/20 12:01:51;;;;;;;5.03;4.25;;;21.80;99.90;;;;;;5091966;28;20680;-80
2021/05/20 12:04:19;;;;;;;3.40;3.03;;;21.90;99.90;;;;;;5091475;28;20314;-79
2021/05/20 12:06:55;;;;;;;5.18;3.33;;;21.80;99.90;;;;;;5083083;28;20230;-79
2021/05/20 12:09:22;;;;;;;4.28;3.15;;;21.90;99.90;;;;;;5092515;28;20217;-79
2021/05/20 12:11:49;;;;;;;4.97;2.78;;;21.80;99.90;;;;;;5091972;28;20229;-79
2021/05/20 12:14:30;;;;;;;3.50;3.10;;;21.60;99.90;;;;;;5092028;28;20222;-79
2021/05/20 12:17:24;;;;;;;3.83;2.60;;;21.50;99.90;;;;;;5092607;28;20230;-80
2021/05/20 12:19:52;;;;;;;3.47;2.60;;;21.20;99.90;;;;;;5044389;28;20286;-80
2021/05/20 12:22:24;;;;;;;6.70;2.70;;;21.00;99.90;;;;;;5091865;28;20289;-80
2021/05/20 12:24:52;;;;;;;4.00;3.00;;;20.80;99.90;;;;;;5091761;28;20222;-80
2021/05/20 12:27:21;;;;;;;5.73;2.90;;;20.80;99.90;;;;;;5091642;28;20318;-80
2021/05/20 12:29:51;;;;;;;3.53;2.80;;;20.80;99.90;;;;;;5091989;28;20229;-79
2021/05/20 12:32:37;;;;;;;5.03;2.47;;;20.60;99.90;;;;;;5091742;28;20285;-79
2021/05/20 12:35:19;;;;;;;6.60;2.60;;;20.60;99.90;;;;;;5091754;28;20195;-79
2021/05/20 12:37:51;;;;;;;4.53;2.93;;;20.50;99.90;;;;;;5091997;28;20218;-80
2021/05/20 12:40:20;;;;;;;6.40;2.80;;;20.70;99.90;;;;;;5091829;28;20254;-79
2021/05/20 12:43:11;;;;;;;4.13;2.43;;;20.70;99.90;;;;;;5091826;28;20214;-79
2021/05/20 12:45:40;;;;;;;4.73;2.40;;;20.70;99.90;;;;;;5085926;28;20267;-79
2021/05/20 12:48:22;;;;;;;4.47;2.13;;;20.40;99.90;;;;;;5089553;28;20296;-79